sensor_id;sensor_type;location;lat;lon;timestamp;temperature;humidity
19037;DHT22;9651;49.138;8.900;2022-11-13T00:02:15;6.60;99.90
19037;DHT22;9651;49.138;8.900;2022-11-13T00:06:36;6.60;99.90
19037;DHT22;9651;49.138;8.900;2022-11-13T00:11:01;6.60;99.90
19037;DHT22;9651;49.138;8.900;2022-11-13T00:15:21;6.60;99.90
19037;DHT22;9651;49.138;8.900;2022-11-13T00:19:43;6.70;99.90
19037;DHT22;9651;49.138;8.900;2022-11-13T00:24:04;6.60;99.90
19037;DHT22;9651;49.138;8.900;2022-11-13T00:28:25;6.60;99.90
19037;DHT22;9651;49.138;8.900;2022-11-13T00:32:45;6.60;99.90
19037;DHT22;9651;49.138;8.900;2022-11-13T00:37:07;6.60;99.90
19037;DHT22;9651;49.138;8.900;2022-11-13T00:41:28;6.60;99.90
19037;DHT22;9651;49.138;8.900;2022-11-13T00:45:48;6.60;99.90
19037;DHT22;9651;49.138;8.900;2022-11-13T00:50:09;6.60;99.90
19037;DHT22;9651;49.138;8.900;2022-11-13T00:54:30;6.60;99.90
19037;DHT22;9651;49.138;8.900;2022-11-13T00:58:51;6.60;99.90
19037;DHT22;9651;49.138;8.900;2022-11-13T01:03:12;6.50;99.90
19037;DHT22;9651;49.138;8.900;2022-11-13T01:07:34;6.50;99.90
19037;DHT22;9651;49.138;8.900;2022-11-13T01:11:56;6.60;99.90
19037;DHT22;9651;49.138;8.900;2022-11-13T01:16:19;6.60;99.90
19037;DHT22;9651;49.138;8.900;2022-11-13T01:20:40;6.60;99.90
19037;DHT22;9651;49.138;8.900;2022-11-13T01:25:01;6.60;99.90
19037;DHT22;9651;49.138;8.900;2022-11-13T01:29:23;6.60;99.90
19037;DHT22;9651;49.138;8.900;2022-11-13T01:33:44;6.70;99.90
19037;DHT22;9651;49.138;8.900;2022-11-13T01:38:04;6.70;99.90
19037;DHT22;9651;49.138;8.900;2022-11-13T01:42:25;6.70;99.90
19037;DHT22;9651;49.138;8.900;2022-11-13T01:46:48;6.70;99.90
19037;DHT22;9651;49.138;8.900;2022-11-13T01:51:13;6.60;99.90
19037;DHT22;9651;49.138;8.900;2022-11-13T01:55:35;6.60;99.90
19037;DHT22;9651;49.138;8.900;2022-11-13T01:59:59;6.70;99.90
19037;DHT22;9651;49.138;8.900;2022-11-13T02:04:21;6.60;99.90
19037;DHT22;9651;49.138;8.900;2022-11-13T02:08:42;6.60;99.90
19037;DHT22;9651;49.138;8.900;2022-11-13T02:13:04;6.60;99.90
19037;DHT22;9651;49.138;8.900;2022-11-13T02:17:28;6.70;99.90
19037;DHT22;9651;49.138;8.900;2022-11-13T02:21:55;6.60;99.90
19037;DHT22;9651;49.138;8.900;2022-11-13T02:26:21;6.70;99.90
19037;DHT22;9651;49.138;8.900;2022-11-13T02:30:43;6.60;99.90
19037;DHT22;9651;49.138;8.900;2022-11-13T02:35:04;6.60;99.90
19037;DHT22;9651;49.138;8.900;2022-11-13T02:39:24;6.60;99.90
19037;DHT22;9651;49.138;8.900;2022-11-13T02:43:46;6.50;99.90
19037;DHT22;9651;49.138;8.900;2022-11-13T02:48:07;6.40;99.90
19037;DHT22;9651;49.138;8.900;2022-11-13T02:52:29;6.40;99.90
19037;DHT22;9651;49.138;8.900;2022-11-13T02:56:49;6.40;99.90
19037;DHT22;9651;49.138;8.900;2022-11-13T03:01:11;6.40;99.90
19037;DHT22;9651;49.138;8.900;2022-11-13T03:05:32;6.20;99.90
19037;DHT22;9651;49.138;8.900;2022-11-13T03:09:52;6.20;99.90
19037;DHT22;9651;49.138;8.900;2022-11-13T03:14:12;6.10;99.90
19037;DHT22;9651;49.138;8.900;2022-11-13T03:18:34;6.20;99.90
19037;DHT22;9651;49.138;8.900;2022-11-13T03:22:55;6.20;99.90
19037;DHT22;9651;49.138;8.900;2022-11-13T03:27:15;6.30;99.90
19037;DHT22;9651;49.138;8.900;2022-11-13T03:31:35;6.30;99.90
19037;DHT22;9651;49.138;8.900;2022-11-13T03:35:57;6.30;99.90
19037;DHT22;9651;49.138;8.900;2022-11-13T03:40:18;6.30;99.90
19037;DHT22;9651;49.138;8.900;2022-11-13T03:44:38;6.30;99.90
19037;DHT22;9651;49.138;8.900;2022-11-13T03:48:59;6.30;99.90
19037;DHT22;9651;49.138;8.900;2022-11-13T03:53:21;6.30;99.90
19037;DHT22;9651;49.138;8.900;2022-11-13T03:57:41;6.30;99.90
19037;DHT22;9651;49.138;8.900;2022-11-13T04:02:01;6.20;99.90
19037;DHT22;9651;49.138;8.900;2022-11-13T04:06:22;6.10;99.90
19037;DHT22;9651;49.138;8.900;2022-11-13T04:10:44;6.00;99.90
19037;DHT22;9651;49.138;8.900;2022-11-13T04:15:06;6.00;99.90
19037;DHT22;9651;49.138;8.900;2022-11-13T04:19:26;6.10;99.90
19037;DHT22;9651;49.138;8.900;2022-11-13T04:23:46;6.20;99.90
19037;DHT22;9651;49.138;8.900;2022-11-13T04:28:08;6.20;99.90
19037;DHT22;9651;49.138;8.900;2022-11-13T04:32:29;6.20;99.90
19037;DHT22;9651;49.138;8.900;2022-11-13T04:36:50;6.10;99.90
19037;DHT22;9651;49.138;8.900;2022-11-13T04:41:12;6.00;99.90
19037;DHT22;9651;49.138;8.900;2022-11-13T04:45:52;5.90;99.90
19037;DHT22;9651;49.138;8.900;2022-11-13T04:50:13;6.00;99.90
19037;DHT22;9651;49.138;8.900;2022-11-13T04:54:34;6.00;99.90
19037;DHT22;9651;49.138;8.900;2022-11-13T04:58:55;6.00;99.90
19037;DHT22;9651;49.138;8.900;2022-11-13T05:03:16;6.00;99.90
19037;DHT22;9651;49.138;8.900;2022-11-13T05:07:37;6.00;99.90
19037;DHT22;9651;49.138;8.900;2022-11-13T05:11:57;6.00;99.90
19037;DHT22;9651;49.138;8.900;2022-11-13T05:16:17;6.00;99.90
19037;DHT22;9651;49.138;8.900;2022-11-13T05:20:39;6.00;99.90
19037;DHT22;9651;49.138;8.900;2022-11-13T05:25:00;6.00;99.90
19037;DHT22;9651;49.138;8.900;2022-11-13T05:29:20;5.90;99.90
19037;DHT22;9651;49.138;8.900;2022-11-13T05:33:42;5.90;99.90
19037;DHT22;9651;49.138;8.900;2022-11-13T05:38:04;5.70;99.90
19037;DHT22;9651;49.138;8.900;2022-11-13T05:42:24;5.70;99.90
19037;DHT22;9651;49.138;8.900;2022-11-13T05:46:44;5.70;99.90
19037;DHT22;9651;49.138;8.900;2022-11-13T05:51:07;5.70;99.90
19037;DHT22;9651;49.138;8.900;2022-11-13T05:55:29;5.70;99.90
19037;DHT22;9651;49.138;8.900;2022-11-13T05:59:50;5.60;99.90
19037;DHT22;9651;49.138;8.900;2022-11-13T06:04:10;5.60;99.90
19037;DHT22;9651;49.138;8.900;2022-11-13T06:08:31;5.50;99.90
19037;DHT22;9651;49.138;8.900;2022-11-13T06:12:53;5.50;99.90
19037;DHT22;9651;49.138;8.900;2022-11-13T06:17:13;5.40;99.90
19037;DHT22;9651;49.138;8.900;2022-11-13T06:21:36;5.20;99.90
19037;DHT22;9651;49.138;8.900;2022-11-13T06:25:59;5.10;99.90
19037;DHT22;9651;49.138;8.900;2022-11-13T06:30:21;5.20;99.90
19037;DHT22;9651;49.138;8.900;2022-11-13T06:34:41;5.10;99.90
19037;DHT22;9651;49.138;8.900;2022-11-13T06:39:05;5.10;99.90
19037;DHT22;9651;49.138;8.900;2022-11-13T06:43:26;5.10;99.90
19037;DHT22;9651;49.138;8.900;2022-11-13T06:47:48;5.10;99.90
19037;DHT22;9651;49.138;8.900;2022-11-13T06:52:09;5.10;99.90
19037;DHT22;9651;49.138;8.900;2022-11-13T06:56:29;5.10;99.90
19037;DHT22;9651;49.138;8.900;2022-11-13T07:00:50;5.10;99.90
19037;DHT22;9651;49.138;8.900;2022-11-13T07:05:11;5.10;99.90
19037;DHT22;9651;49.138;8.900;2022-11-13T07:09:31;5.10;99.90
19037;DHT22;9651;49.138;8.900;2022-11-13T07:13:52;5.10;99.90
19037;DHT22;9651;49.138;8.900;2022-11-13T07:18:13;5.20;99.90
19037;DHT22;9651;49.138;8.900;2022-11-13T07:22:34;5.20;99.90
19037;DHT22;9651;49.138;8.900;2022-11-13T07:26:55;5.10;99.90
19037;DHT22;9651;49.138;8.900;2022-11-13T07:31:16;5.10;99.90
19037;DHT22;9651;49.138;8.900;2022-11-13T07:35:36;5.00;99.90
19037;DHT22;9651;49.138;8.900;2022-11-13T07:39:58;5.10;99.90
19037;DHT22;9651;49.138;8.900;2022-11-13T07:44:19;5.10;99.90
19037;DHT22;9651;49.138;8.900;2022-11-13T07:48:39;5.10;99.90
19037;DHT22;9651;49.138;8.900;2022-11-13T07:53:01;5.10;99.90
19037;DHT22;9651;49.138;8.900;2022-11-13T07:57:23;5.20;99.90
19037;DHT22;9651;49.138;8.900;2022-11-13T08:01:45;5.30;99.90
19037;DHT22;9651;49.138;8.900;2022-11-13T08:06:06;5.50;99.90
19037;DHT22;9651;49.138;8.900;2022-11-13T08:10:27;5.70;99.90
19037;DHT22;9651;49.138;8.900;2022-11-13T08:14:49;5.60;99.90
19037;DHT22;9651;49.138;8.900;2022-11-13T08:19:10;5.50;99.90
19037;DHT22;9651;49.138;8.900;2022-11-13T08:23:30;5.20;99.90
19037;DHT22;9651;49.138;8.900;2022-11-13T08:27:52;5.30;99.90
19037;DHT22;9651;49.138;8.900;2022-11-13T08:32:15;5.70;99.90
19037;DHT22;9651;49.138;8.900;2022-11-13T08:36:35;6.30;99.90
19037;DHT22;9651;49.138;8.900;2022-11-13T08:40:56;6.90;99.90
19037;DHT22;9651;49.138;8.900;2022-11-13T08:45:17;7.30;99.90
19037;DHT22;9651;49.138;8.900;2022-11-13T08:49:38;8.00;99.90
19037;DHT22;9651;49.138;8.900;2022-11-13T08:53:59;8.70;99.90
19037;DHT22;9651;49.138;8.900;2022-11-13T08:58:19;9.20;99.90
19037;DHT22;9651;49.138;8.900;2022-11-13T09:02:40;9.30;99.90
19037;DHT22;9651;49.138;8.900;2022-11-13T09:07:01;9.50;99.90
19037;DHT22;9651;49.138;8.900;2022-11-13T09:11:22;9.90;99.90
19037;DHT22;9651;49.138;8.900;2022-11-13T09:15:45;10.20;99.90
19037;DHT22;9651;49.138;8.900;2022-11-13T09:20:07;10.80;99.90
19037;DHT22;9651;49.138;8.900;2022-11-13T09:24:29;11.00;99.90
19037;DHT22;9651;49.138;8.900;2022-11-13T09:28:49;11.50;99.90
19037;DHT22;9651;49.138;8.900;2022-11-13T09:33:10;11.60;99.90
19037;DHT22;9651;49.138;8.900;2022-11-13T09:37:33;12.00;99.90
19037;DHT22;9651;49.138;8.900;2022-11-13T09:42:01;12.30;99.90
19037;DHT22;9651;49.138;8.900;2022-11-13T09:46:35;12.40;99.90
19037;DHT22;9651;49.138;8.900;2022-11-13T09:50:58;12.20;99.90
19037;DHT22;9651;49.138;8.900;2022-11-13T09:55:27;12.60;99.90
19037;DHT22;9651;49.138;8.900;2022-11-13T09:59:52;12.60;99.90
19037;DHT22;9651;49.138;8.900;2022-11-13T10:04:16;12.70;99.90
19037;DHT22;9651;49.138;8.900;2022-11-13T10:08:48;12.90;99.90
19037;DHT22;9651;49.138;8.900;2022-11-13T10:13:13;13.30;99.90
19037;DHT22;9651;49.138;8.900;2022-11-13T10:17:38;13.70;99.90
19037;DHT22;9651;49.138;8.900;2022-11-13T10:22:04;14.00;99.90
19037;DHT22;9651;49.138;8.900;2022-11-13T10:26:27;14.30;99.90
19037;DHT22;9651;49.138;8.900;2022-11-13T10:30:48;14.20;99.90
19037;DHT22;9651;49.138;8.900;2022-11-13T10:35:41;14.30;99.90
19037;DHT22;9651;49.138;8.900;2022-11-13T10:40:04;15.00;99.90
19037;DHT22;9651;49.138;8.900;2022-11-13T10:44:30;15.10;99.90
19037;DHT22;9651;49.138;8.900;2022-11-13T10:48:51;15.60;99.90
19037;DHT22;9651;49.138;8.900;2022-11-13T10:53:15;16.00;99.90
19037;DHT22;9651;49.138;8.900;2022-11-13T10:57:36;15.70;99.90
19037;DHT22;9651;49.138;8.900;2022-11-13T11:02:08;16.00;99.90
19037;DHT22;9651;49.138;8.900;2022-11-13T11:06:36;16.40;99.90
19037;DHT22;9651;49.138;8.900;2022-11-13T11:11:00;16.90;99.90
19037;DHT22;9651;49.138;8.900;2022-11-13T11:15:41;17.10;99.90
19037;DHT22;9651;49.138;8.900;2022-11-13T11:20:09;16.80;99.90
19037;DHT22;9651;49.138;8.900;2022-11-13T11:24:38;17.10;99.90
19037;DHT22;9651;49.138;8.900;2022-11-13T11:29:12;17.60;99.90
19037;DHT22;9651;49.138;8.900;2022-11-13T11:33:36;16.90;99.90
19037;DHT22;9651;49.138;8.900;2022-11-13T11:38:04;15.30;99.90
19037;DHT22;9651;49.138;8.900;2022-11-13T11:42:29;14.30;99.90
19037;DHT22;9651;49.138;8.900;2022-11-13T11:46:54;13.70;99.90
19037;DHT22;9651;49.138;8.900;2022-11-13T11:51:21;13.60;99.90
19037;DHT22;9651;49.138;8.900;2022-11-13T11:56:06;13.50;99.90
19037;DHT22;9651;49.138;8.900;2022-11-13T12:00:31;13.40;99.90
19037;DHT22;9651;49.138;8.900;2022-11-13T12:05:02;13.00;99.90
19037;DHT22;9651;49.138;8.900;2022-11-13T12:09:27;12.70;99.90
19037;DHT22;9651;49.138;8.900;2022-11-13T12:13:57;12.70;99.90
19037;DHT22;9651;49.138;8.900;2022-11-13T12:18:27;12.70;99.90
19037;DHT22;9651;49.138;8.900;2022-11-13T12:23:00;12.40;99.90
19037;DHT22;9651;49.138;8.900;2022-11-13T12:27:29;12.40;99.90
19037;DHT22;9651;49.138;8.900;2022-11-13T12:32:02;12.40;99.90
19037;DHT22;9651;49.138;8.900;2022-11-13T12:36:27;12.30;99.90
19037;DHT22;9651;49.138;8.900;2022-11-13T12:40:53;12.30;99.90
19037;DHT22;9651;49.138;8.900;2022-11-13T12:45:19;12.10;99.90
19037;DHT22;9651;49.138;8.900;2022-11-13T12:49:42;12.10;99.90
19037;DHT22;9651;49.138;8.900;2022-11-13T12:54:02;12.10;99.90
19037;DHT22;9651;49.138;8.900;2022-11-13T12:58:26;12.20;99.90
19037;DHT22;9651;49.138;8.900;2022-11-13T13:02:58;12.20;99.90
19037;DHT22;9651;49.138;8.900;2022-11-13T13:07:36;12.20;99.90
19037;DHT22;9651;49.138;8.900;2022-11-13T13:12:05;12.20;99.90
19037;DHT22;9651;49.138;8.900;2022-11-13T13:16:31;12.20;99.90
19037;DHT22;9651;49.138;8.900;2022-11-13T13:21:01;12.20;99.90
19037;DHT22;9651;49.138;8.900;2022-11-13T13:25:25;12.20;99.90
19037;DHT22;9651;49.138;8.900;2022-11-13T13:29:46;12.20;99.90
19037;DHT22;9651;49.138;8.900;2022-11-13T13:34:22;12.20;99.90
19037;DHT22;9651;49.138;8.900;2022-11-13T13:38:48;12.10;99.90
19037;DHT22;9651;49.138;8.900;2022-11-13T13:43:33;12.20;99.90
19037;DHT22;9651;49.138;8.900;2022-11-13T13:47:56;12.20;99.90
19037;DHT22;9651;49.138;8.900;2022-11-13T13:52:29;12.20;99.90
19037;DHT22;9651;49.138;8.900;2022-11-13T13:56:51;12.20;99.90
19037;DHT22;9651;49.138;8.900;2022-11-13T14:01:14;12.20;99.90
19037;DHT22;9651;49.138;8.900;2022-11-13T14:05:35;12.20;99.90
19037;DHT22;9651;49.138;8.900;2022-11-13T14:10:15;12.10;99.90
19037;DHT22;9651;49.138;8.900;2022-11-13T14:14:37;12.10;99.90
19037;DHT22;9651;49.138;8.900;2022-11-13T14:19:02;12.10;99.90
19037;DHT22;9651;49.138;8.900;2022-11-13T14:23:26;12.10;99.90
19037;DHT22;9651;49.138;8.900;2022-11-13T14:27:49;12.00;99.90
19037;DHT22;9651;49.138;8.900;2022-11-13T14:32:12;11.90;99.90
19037;DHT22;9651;49.138;8.900;2022-11-13T14:36:33;11.90;99.90
19037;DHT22;9651;49.138;8.900;2022-11-13T14:40:55;11.90;99.90
19037;DHT22;9651;49.138;8.900;2022-11-13T14:45:20;11.90;99.90
19037;DHT22;9651;49.138;8.900;2022-11-13T14:49:40;11.90;99.90
19037;DHT22;9651;49.138;8.900;2022-11-13T14:54:02;11.80;99.90
19037;DHT22;9651;49.138;8.900;2022-11-13T14:58:28;11.80;99.90
19037;DHT22;9651;49.138;8.900;2022-11-13T15:02:50;11.80;99.90
19037;DHT22;9651;49.138;8.900;2022-11-13T15:07:27;11.70;99.90
19037;DHT22;9651;49.138;8.900;2022-11-13T15:11:48;11.60;99.90
19037;DHT22;9651;49.138;8.900;2022-11-13T15:16:10;11.50;99.90
19037;DHT22;9651;49.138;8.900;2022-11-13T15:20:34;11.40;99.90
19037;DHT22;9651;49.138;8.900;2022-11-13T15:24:54;11.30;99.90
19037;DHT22;9651;49.138;8.900;2022-11-13T15:29:15;11.20;99.90
19037;DHT22;9651;49.138;8.900;2022-11-13T15:33:37;11.20;99.90
19037;DHT22;9651;49.138;8.900;2022-11-13T15:37:59;11.00;99.90
19037;DHT22;9651;49.138;8.900;2022-11-13T15:42:25;10.90;99.90
19037;DHT22;9651;49.138;8.900;2022-11-13T15:46:46;10.80;99.90
19037;DHT22;9651;49.138;8.900;2022-11-13T15:51:12;10.60;99.90
19037;DHT22;9651;49.138;8.900;2022-11-13T15:55:38;10.50;99.90
19037;DHT22;9651;49.138;8.900;2022-11-13T15:59:59;10.30;99.90
19037;DHT22;9651;49.138;8.900;2022-11-13T16:04:20;10.20;99.90
19037;DHT22;9651;49.138;8.900;2022-11-13T16:08:40;10.20;99.90
19037;DHT22;9651;49.138;8.900;2022-11-13T16:13:02;10.10;99.90
19037;DHT22;9651;49.138;8.900;2022-11-13T16:17:23;9.90;99.90
19037;DHT22;9651;49.138;8.900;2022-11-13T16:21:44;9.60;99.90
19037;DHT22;9651;49.138;8.900;2022-11-13T16:26:05;9.30;99.90
19037;DHT22;9651;49.138;8.900;2022-11-13T16:30:27;9.10;99.90
19037;DHT22;9651;49.138;8.900;2022-11-13T16:34:49;9.00;99.90
19037;DHT22;9651;49.138;8.900;2022-11-13T16:39:13;8.80;99.90
19037;DHT22;9651;49.138;8.900;2022-11-13T16:43:34;8.70;99.90
19037;DHT22;9651;49.138;8.900;2022-11-13T16:47:56;8.60;99.90
19037;DHT22;9651;49.138;8.900;2022-11-13T16:52:16;8.50;99.90
19037;DHT22;9651;49.138;8.900;2022-11-13T16:56:37;8.30;99.90
19037;DHT22;9651;49.138;8.900;2022-11-13T17:00:57;8.20;99.90
19037;DHT22;9651;49.138;8.900;2022-11-13T17:05:20;8.00;99.90
19037;DHT22;9651;49.138;8.900;2022-11-13T17:09:42;7.90;99.90
19037;DHT22;9651;49.138;8.900;2022-11-13T17:14:02;7.80;99.90
19037;DHT22;9651;49.138;8.900;2022-11-13T17:18:23;7.70;99.90
19037;DHT22;9651;49.138;8.900;2022-11-13T17:22:44;7.50;99.90
19037;DHT22;9651;49.138;8.900;2022-11-13T17:27:07;7.30;99.90
19037;DHT22;9651;49.138;8.900;2022-11-13T17:31:28;7.20;99.90
19037;DHT22;9651;49.138;8.900;2022-11-13T17:35:53;7.10;99.90
19037;DHT22;9651;49.138;8.900;2022-11-13T17:40:15;7.00;99.90
19037;DHT22;9651;49.138;8.900;2022-11-13T17:44:35;6.90;99.90
19037;DHT22;9651;49.138;8.900;2022-11-13T17:48:56;6.80;99.90
19037;DHT22;9651;49.138;8.900;2022-11-13T17:53:16;6.70;99.90
19037;DHT22;9651;49.138;8.900;2022-11-13T17:57:38;6.60;99.90
19037;DHT22;9651;49.138;8.900;2022-11-13T18:01:58;6.50;99.90
19037;DHT22;9651;49.138;8.900;2022-11-13T18:06:19;6.50;99.90
19037;DHT22;9651;49.138;8.900;2022-11-13T18:10:41;6.50;99.90
19037;DHT22;9651;49.138;8.900;2022-11-13T18:15:03;6.40;99.90
19037;DHT22;9651;49.138;8.900;2022-11-13T18:19:24;6.40;99.90
19037;DHT22;9651;49.138;8.900;2022-11-13T18:23:45;6.40;99.90
19037;DHT22;9651;49.138;8.900;2022-11-13T18:28:06;6.40;99.90
19037;DHT22;9651;49.138;8.900;2022-11-13T18:32:28;6.40;99.90
19037;DHT22;9651;49.138;8.900;2022-11-13T18:36:49;6.20;99.90
19037;DHT22;9651;49.138;8.900;2022-11-13T18:41:10;6.10;99.90
19037;DHT22;9651;49.138;8.900;2022-11-13T18:45:31;6.20;99.90
19037;DHT22;9651;49.138;8.900;2022-11-13T18:49:53;6.20;99.90
19037;DHT22;9651;49.138;8.900;2022-11-13T18:54:13;6.10;99.90
19037;DHT22;9651;49.138;8.900;2022-11-13T18:58:35;5.90;99.90
19037;DHT22;9651;49.138;8.900;2022-11-13T19:02:55;5.90;99.90
19037;DHT22;9651;49.138;8.900;2022-11-13T19:07:17;5.70;99.90
19037;DHT22;9651;49.138;8.900;2022-11-13T19:11:38;5.50;99.90
19037;DHT22;9651;49.138;8.900;2022-11-13T19:16:03;5.50;99.90
19037;DHT22;9651;49.138;8.900;2022-11-13T19:20:23;5.50;99.90
19037;DHT22;9651;49.138;8.900;2022-11-13T19:24:45;5.50;99.90
19037;DHT22;9651;49.138;8.900;2022-11-13T19:29:06;5.50;99.90
19037;DHT22;9651;49.138;8.900;2022-11-13T19:33:27;5.40;99.90
19037;DHT22;9651;49.138;8.900;2022-11-13T19:37:47;5.40;99.90
19037;DHT22;9651;49.138;8.900;2022-11-13T19:42:09;5.50;99.90
19037;DHT22;9651;49.138;8.900;2022-11-13T19:46:29;5.50;99.90
19037;DHT22;9651;49.138;8.900;2022-11-13T19:50:52;5.50;99.90
19037;DHT22;9651;49.138;8.900;2022-11-13T19:55:12;5.50;99.90
19037;DHT22;9651;49.138;8.900;2022-11-13T19:59:34;5.50;99.90
19037;DHT22;9651;49.138;8.900;2022-11-13T20:03:55;5.40;99.90
19037;DHT22;9651;49.138;8.900;2022-11-13T20:08:16;5.20;99.90
19037;DHT22;9651;49.138;8.900;2022-11-13T20:12:37;5.30;99.90
19037;DHT22;9651;49.138;8.900;2022-11-13T20:16:59;5.20;99.90
19037;DHT22;9651;49.138;8.900;2022-11-13T20:21:22;5.10;99.90
19037;DHT22;9651;49.138;8.900;2022-11-13T20:25:50;5.00;99.90
19037;DHT22;9651;49.138;8.900;2022-11-13T20:30:11;5.00;99.90
19037;DHT22;9651;49.138;8.900;2022-11-13T20:34:33;5.00;99.90
19037;DHT22;9651;49.138;8.900;2022-11-13T20:38:54;5.00;99.90
19037;DHT22;9651;49.138;8.900;2022-11-13T20:43:15;5.00;99.90
19037;DHT22;9651;49.138;8.900;2022-11-13T20:47:36;5.00;99.90
19037;DHT22;9651;49.138;8.900;2022-11-13T20:51:58;4.90;99.90
19037;DHT22;9651;49.138;8.900;2022-11-13T20:56:21;5.00;99.90
19037;DHT22;9651;49.138;8.900;2022-11-13T21:00:41;5.00;99.90
19037;DHT22;9651;49.138;8.900;2022-11-13T21:05:02;5.00;99.90
19037;DHT22;9651;49.138;8.900;2022-11-13T21:09:24;4.90;99.90
19037;DHT22;9651;49.138;8.900;2022-11-13T21:13:45;4.90;99.90
19037;DHT22;9651;49.138;8.900;2022-11-13T21:18:07;4.80;99.90
19037;DHT22;9651;49.138;8.900;2022-11-13T21:22:27;4.90;99.90
19037;DHT22;9651;49.138;8.900;2022-11-13T21:26:49;4.90;99.90
19037;DHT22;9651;49.138;8.900;2022-11-13T21:31:14;4.90;99.90
19037;DHT22;9651;49.138;8.900;2022-11-13T21:35:34;4.90;99.90
19037;DHT22;9651;49.138;8.900;2022-11-13T21:39:55;4.90;99.90
19037;DHT22;9651;49.138;8.900;2022-11-13T21:44:17;4.80;99.90
19037;DHT22;9651;49.138;8.900;2022-11-13T21:48:37;4.80;99.90
19037;DHT22;9651;49.138;8.900;2022-11-13T21:52:57;4.80;99.90
19037;DHT22;9651;49.138;8.900;2022-11-13T21:57:18;4.80;99.90
19037;DHT22;9651;49.138;8.900;2022-11-13T22:01:42;4.70;99.90
19037;DHT22;9651;49.138;8.900;2022-11-13T22:06:13;4.60;99.90
19037;DHT22;9651;49.138;8.900;2022-11-13T22:10:34;4.50;99.90
19037;DHT22;9651;49.138;8.900;2022-11-13T22:14:55;4.40;99.90
19037;DHT22;9651;49.138;8.900;2022-11-13T22:19:18;4.30;99.90
19037;DHT22;9651;49.138;8.900;2022-11-13T22:23:39;4.30;99.90
19037;DHT22;9651;49.138;8.900;2022-11-13T22:27:59;4.30;99.90
19037;DHT22;9651;49.138;8.900;2022-11-13T22:32:19;4.20;99.90
19037;DHT22;9651;49.138;8.900;2022-11-13T22:36:41;4.10;99.90
19037;DHT22;9651;49.138;8.900;2022-11-13T22:41:03;4.10;99.90
19037;DHT22;9651;49.138;8.900;2022-11-13T22:45:23;4.00;99.90
19037;DHT22;9651;49.138;8.900;2022-11-13T22:49:43;3.80;99.90
19037;DHT22;9651;49.138;8.900;2022-11-13T22:54:07;3.80;99.90
19037;DHT22;9651;49.138;8.900;2022-11-13T22:58:27;3.70;99.90
19037;DHT22;9651;49.138;8.900;2022-11-13T23:02:48;3.60;99.90
19037;DHT22;9651;49.138;8.900;2022-11-13T23:07:09;3.60;99.90
19037;DHT22;9651;49.138;8.900;2022-11-13T23:11:33;3.60;99.90
19037;DHT22;9651;49.138;8.900;2022-11-13T23:15:55;3.60;99.90
19037;DHT22;9651;49.138;8.900;2022-11-13T23:20:16;3.70;99.90
19037;DHT22;9651;49.138;8.900;2022-11-13T23:24:37;3.80;99.90
19037;DHT22;9651;49.138;8.900;2022-11-13T23:28:58;3.80;99.90
19037;DHT22;9651;49.138;8.900;2022-11-13T23:33:19;3.80;99.90
19037;DHT22;9651;49.138;8.900;2022-11-13T23:37:40;3.90;99.90
19037;DHT22;9651;49.138;8.900;2022-11-13T23:42:00;4.00;99.90
19037;DHT22;9651;49.138;8.900;2022-11-13T23:46:22;4.20;99.90
19037;DHT22;9651;49.138;8.900;2022-11-13T23:50:42;4.30;99.90
19037;DHT22;9651;49.138;8.900;2022-11-13T23:55:03;4.30;99.90
19037;DHT22;9651;49.138;8.900;2022-11-13T23:59:24;4.40;99.90
